Time;durP1;ratioP1;P1;durP2;ratioP2;P2;SDS_P1;SDS_P2;PMS_P1;PMS_P2;Temp;Humidity;BMP_temperature;BMP_pressure;BME280_temperature;BME280_humidity;BME280_pressure;Samples;Min_cycle;Max_cycle;Signal;HPM_P1;HPM_P2
2022/06/27 00:02:38;;;;;;;0.70;0.70;;;;;;;;;;5054212;28;20456;-82
2022/06/27 00:05:07;;;;;;;0.70;0.70;;;;;;;;;;5052590;28;20490;-82
2022/06/27 00:07:33;;;;;;;1.27;1.17;;;;;;;;;;5065335;28;20467;-82
2022/06/27 00:10:00;;;;;;;0.70;0.60;;;;;;;;;;5073168;28;20468;-81
2022/06/27 00:12:27;;;;;;;0.70;0.60;;;;;;;;;;5069386;28;20452;-81
2022/06/27 00:14:58;;;;;;;1.27;1.17;;;;;;;;;;5058827;28;20424;-82
2022/06/27 00:17:27;;;;;;;0.70;0.70;;;;;;;;;;5056999;28;20433;-82
2022/06/27 00:19:54;;;;;;;0.70;0.70;;;;;;;;;;5037791;28;20493;-81
2022/06/27 00:22:21;;;;;;;0.70;0.70;;;;;;;;;;5054534;28;20469;-82
2022/06/27 00:24:48;;;;;;;0.70;0.70;;;;;;;;;;5036743;28;20474;-81
2022/06/27 00:27:15;;;;;;;0.80;0.80;;;;;;;;;;5054306;28;20942;-82
2022/06/27 00:29:42;;;;;;;0.70;0.70;;;;;;;;;;5037766;28;20504;-81
2022/06/27 00:32:11;;;;;;;4.10;1.70;;;;;;;;;;5036447;28;20562;-81
2022/06/27 00:34:37;;;;;;;1.30;1.20;;;;;;;;;;5070262;28;20945;-81
2022/06/27 00:37:04;;;;;;;0.70;0.70;;;;;;;;;;5072784;28;20466;-80
2022/06/27 00:39:31;;;;;;;0.70;0.70;;;;;;;;;;5072549;28;20461;-82
2022/06/27 00:41:58;;;;;;;0.87;0.80;;;;;;;;;;5055317;28;20496;-81
2022/06/27 00:44:28;;;;;;;0.70;0.67;;;;;;;;;;5053765;28;20535;-82
2022/06/27 00:46:55;;;;;;;0.70;0.70;;;;;;;;;;5052429;28;20432;-82
2022/06/27 00:49:26;;;;;;;0.70;0.60;;;;;;;;;;5052792;28;20868;-83
2022/06/27 00:51:54;;;;;;;0.83;0.83;;;;;;;;;;5053027;28;20445;-82
2022/06/27 00:54:23;;;;;;;0.80;0.80;;;;;;;;;;5068906;28;20439;-82
2022/06/27 00:56:53;;;;;;;0.70;0.67;;;;;;;;;;5072509;28;20848;-83
2022/06/27 00:59:22;;;;;;;0.70;0.70;;;;;;;;;;5068073;28;20445;-82
2022/06/27 01:01:52;;;;;;;2.40;2.20;;;;;;;;;;5072243;28;20546;-81
2022/06/27 01:04:22;;;;;;;0.70;0.60;;;;;;;;;;5072117;28;20446;-82
2022/06/27 01:06:54;;;;;;;0.70;0.70;;;;;;;;;;5071731;28;20477;-82
2022/06/27 01:09:25;;;;;;;0.70;0.70;;;;;;;;;;5069205;28;20468;-82
2022/06/27 01:11:53;;;;;;;1.00;1.00;;;;;;;;;;5055797;28;20881;-83
2022/06/27 01:14:22;;;;;;;1.30;1.20;;;;;;;;;;5035414;28;20448;-82
2022/06/27 01:16:50;;;;;;;0.83;0.83;;;;;;;;;;5057280;28;20438;-83
2022/06/27 01:19:18;;;;;;;1.00;0.90;;;;;;;;;;5049837;28;20459;-83
2022/06/27 01:21:47;;;;;;;0.70;0.70;;;;;;;;;;5071836;28;20457;-82
2022/06/27 01:24:17;;;;;;;1.20;1.10;;;;;;;;;;5072034;28;20544;-80
2022/06/27 01:26:46;;;;;;;0.70;0.70;;;;;;;;;;5072473;28;20888;-81
2022/06/27 01:29:17;;;;;;;0.70;0.70;;;;;;;;;;5072945;28;20946;-81
2022/06/27 01:31:46;;;;;;;0.70;0.70;;;;;;;;;;5055485;28;20461;-80
2022/06/27 01:34:14;;;;;;;0.70;0.60;;;;;;;;;;5073752;28;20448;-80
2022/06/27 01:36:44;;;;;;;0.70;0.60;;;;;;;;;;5049276;28;20517;-81
2022/06/27 01:39:18;;;;;;;0.70;0.70;;;;;;;;;;5056466;28;20980;-80
2022/06/27 01:41:49;;;;;;;0.80;0.70;;;;;;;;;;5068417;28;20506;-80
2022/06/27 01:44:21;;;;;;;0.70;0.70;;;;;;;;;;5052237;28;20456;-80
2022/06/27 01:46:50;;;;;;;0.90;0.90;;;;;;;;;;5055397;28;21013;-80
2022/06/27 01:49:19;;;;;;;0.80;0.80;;;;;;;;;;5056772;28;20491;-80
2022/06/27 01:51:48;;;;;;;3.33;2.53;;;;;;;;;;5058661;28;20535;-80
2022/06/27 01:54:19;;;;;;;0.70;0.70;;;;;;;;;;5058211;28;20448;-80
2022/06/27 01:56:51;;;;;;;0.70;0.70;;;;;;;;;;5057953;28;20438;-80
2022/06/27 01:59:22;;;;;;;0.70;0.60;;;;;;;;;;5058444;28;20935;-80
2022/06/27 02:01:55;;;;;;;0.70;0.70;;;;;;;;;;5068037;28;20949;-80
2022/06/27 02:04:22;;;;;;;0.70;0.70;;;;;;;;;;5080385;28;20479;-80
2022/06/27 02:06:49;;;;;;;1.03;0.93;;;;;;;;;;5077736;28;20544;-80
2022/06/27 02:09:16;;;;;;;1.10;1.00;;;;;;;;;;5059142;28;20536;-80
2022/06/27 02:11:46;;;;;;;0.80;0.80;;;;;;;;;;5058448;28;20435;-80
2022/06/27 02:14:14;;;;;;;0.80;0.80;;;;;;;;;;5058407;28;20967;-80
2022/06/27 02:16:42;;;;;;;1.10;0.80;;;;;;;;;;5058698;28;20444;-80
2022/06/27 02:19:12;;;;;;;0.70;0.70;;;;;;;;;;5059150;28;20934;-80
2022/06/27 02:21:39;;;;;;;0.93;0.93;;;;;;;;;;5058717;28;20463;-80
2022/06/27 02:24:07;;;;;;;0.70;0.60;;;;;;;;;;5058546;28;20456;-80
2022/06/27 02:26:33;;;;;;;1.20;1.10;;;;;;;;;;5059114;28;21048;-80
2022/06/27 02:29:02;;;;;;;0.70;0.60;;;;;;;;;;5062452;28;20485;-80
2022/06/27 02:31:31;;;;;;;0.80;0.80;;;;;;;;;;5060763;28;20995;-80
2022/06/27 02:33:58;;;;;;;0.87;0.87;;;;;;;;;;5057620;28;20434;-80
2022/06/27 02:36:30;;;;;;;0.70;0.70;;;;;;;;;;5063187;28;20467;-79
2022/06/27 02:38:58;;;;;;;0.80;0.80;;;;;;;;;;5079347;28;20486;-80
2022/06/27 02:41:26;;;;;;;0.83;0.83;;;;;;;;;;5079218;28;20936;-80
2022/06/27 02:43:58;;;;;;;0.70;0.70;;;;;;;;;;5064369;28;20446;-80
2022/06/27 02:46:28;;;;;;;0.70;0.60;;;;;;;;;;5058417;28;20474;-80
2022/06/27 02:48:55;;;;;;;0.70;0.70;;;;;;;;;;5056087;28;20456;-80
2022/06/27 02:51:22;;;;;;;0.70;0.70;;;;;;;;;;5077232;28;20498;-80
2022/06/27 02:53:53;;;;;;;0.70;0.60;;;;;;;;;;5061378;28;20445;-80
2022/06/27 02:56:41;;;;;;;0.70;0.70;;;;;;;;;;5059684;28;20855;-80
2022/06/27 02:59:10;;;;;;;0.70;0.60;;;;;;;;;;5074266;28;20812;-80
2022/06/27 03:01:41;;;;;;;1.10;0.90;;;;;;;;;;5067745;28;20493;-80
2022/06/27 03:04:08;;;;;;;0.97;0.97;;;;;;;;;;5058558;28;20456;-80
2022/06/27 03:06:36;;;;;;;0.70;0.70;;;;;;;;;;5057193;28;20561;-80
2022/06/27 03:09:02;;;;;;;0.70;0.70;;;;;;;;;;5056091;28;20840;-80
2022/06/27 03:11:29;;;;;;;1.00;0.90;;;;;;;;;;5056429;28;20499;-80
2022/06/27 03:13:56;;;;;;;0.70;0.70;;;;;;;;;;5054134;28;20475;-80
2022/06/27 03:16:24;;;;;;;0.80;0.80;;;;;;;;;;5055265;28;20434;-80
2022/06/27 03:18:53;;;;;;;0.70;0.60;;;;;;;;;;5040982;28;20447;-80
2022/06/27 03:21:38;;;;;;;0.70;0.67;;;;;;;;;;5040453;28;20504;-80
2022/06/27 03:24:05;;;;;;;1.20;1.00;;;;;;;;;;5054582;28;20447;-80
2022/06/27 03:26:32;;;;;;;0.90;0.90;;;;;;;;;;5053599;28;20486;-80
2022/06/27 03:28:59;;;;;;;0.70;0.70;;;;;;;;;;5054223;28;21040;-80
2022/06/27 03:31:26;;;;;;;0.70;0.70;;;;;;;;;;5056362;28;20860;-80
2022/06/27 03:33:55;;;;;;;0.70;0.60;;;;;;;;;;5053785;28;20937;-81
2022/06/27 03:36:27;;;;;;;0.87;0.87;;;;;;;;;;5055386;28;20463;-80
2022/06/27 03:38:54;;;;;;;0.70;0.70;;;;;;;;;;5054776;28;20443;-80
2022/06/27 03:41:21;;;;;;;0.93;0.90;;;;;;;;;;5055093;28;20551;-80
2022/06/27 03:43:49;;;;;;;0.80;0.80;;;;;;;;;;5036867;28;20487;-80
2022/06/27 03:46:18;;;;;;;0.70;0.70;;;;;;;;;;5037327;28;20471;-81
2022/06/27 03:51:35;;;;;;;0.70;0.60;;;;;;;;;;5055431;28;20451;-81
2022/06/27 03:54:02;;;;;;;0.70;0.70;;;;;;;;;;5037718;28;20810;-80
2022/06/27 03:56:29;;;;;;;0.70;0.70;;;;;;;;;;5054038;28;20869;-81
2022/06/27 03:58:56;;;;;;;0.77;0.77;;;;;;;;;;5037456;28;20505;-81
2022/06/27 04:01:23;;;;;;;0.70;0.63;;;;;;;;;;5052804;28;20954;-81
2022/06/27 04:03:50;;;;;;;0.70;0.70;;;;;;;;;;5056721;28;20450;-80
2022/06/27 04:06:18;;;;;;;0.70;0.70;;;;;;;;;;5068709;28;20486;-81
2022/06/27 04:08:47;;;;;;;1.10;1.00;;;;;;;;;;5053496;28;20841;-81
2022/06/27 04:11:14;;;;;;;0.70;0.60;;;;;;;;;;5036452;28;20443;-81
2022/06/27 04:13:45;;;;;;;0.90;0.90;;;;;;;;;;5054032;28;20956;-81
2022/06/27 04:16:52;;;;;;;1.13;1.03;;;;;;;;;;5073074;28;20437;-80
2022/06/27 04:19:39;;;;;;;1.23;1.13;;;;;;;;;;5072876;28;20788;-80
2022/06/27 04:22:28;;;;;;;0.70;0.60;;;;;;;;;;5059929;28;21059;-81
2022/06/27 04:24:58;;;;;;;0.70;0.70;;;;;;;;;;5072796;28;20485;-80
2022/06/27 04:27:42;;;;;;;0.70;0.70;;;;;;;;;;5041604;28;20474;-80
2022/06/27 04:30:16;;;;;;;0.80;0.80;;;;;;;;;;5037167;28;20517;-80
2022/06/27 04:32:45;;;;;;;2.40;1.00;;;;;;;;;;5036879;28;20456;-80
2022/06/27 04:35:12;;;;;;;0.60;0.60;;;;;;;;;;5052101;28;20929;-81
2022/06/27 04:37:43;;;;;;;0.90;0.90;;;;;;;;;;5068142;28;20460;-81
2022/06/27 04:40:50;;;;;;;0.70;0.70;;;;;;;;;;5076511;28;20536;-80
2022/06/27 04:43:19;;;;;;;0.70;0.60;;;;;;;;;;5063290;28;20464;-81
2022/06/27 04:45:47;;;;;;;0.80;0.80;;;;;;;;;;5049289;28;20920;-82
2022/06/27 04:48:37;;;;;;;0.70;0.70;;;;;;;;;;5082462;28;20930;-81
2022/06/27 04:51:06;;;;;;;1.23;1.00;;;;;;;;;;5076135;28;20509;-81
2022/06/27 04:53:35;;;;;;;1.73;1.63;;;;;;;;;;5054061;28;20438;-80
2022/06/27 04:56:03;;;;;;;0.70;0.70;;;;;;;;;;5072943;28;20446;-80
2022/06/27 04:58:33;;;;;;;1.17;1.13;;;;;;;;;;5056258;28;20788;-80
2022/06/27 05:01:00;;;;;;;0.93;0.90;;;;;;;;;;5067294;28;20454;-80
2022/06/27 05:03:49;;;;;;;2.03;1.03;;;;;;;;;;5052223;28;20448;-80
2022/06/27 05:06:24;;;;;;;0.93;0.87;;;;;;;;;;5055089;28;20551;-81
2022/06/27 05:08:52;;;;;;;0.87;0.87;;;;;;;;;;5060335;28;20453;-80
2022/06/27 05:11:20;;;;;;;0.70;0.60;;;;;;;;;;5068384;28;20849;-80
2022/06/27 05:13:47;;;;;;;1.10;1.10;;;;;;;;;;5054372;28;20435;-80
2022/06/27 05:16:28;;;;;;;0.77;0.77;;;;;;;;;;5057967;28;20437;-80
2022/06/27 05:18:55;;;;;;;1.33;1.23;;;;;;;;;;5054851;28;20449;-81
2022/06/27 05:21:41;;;;;;;0.70;0.60;;;;;;;;;;5072441;28;20828;-80
2022/06/27 05:24:08;;;;;;;0.70;0.70;;;;;;;;;;5054704;28;20481;-81
2022/06/27 05:26:37;;;;;;;3.33;1.00;;;;;;;;;;5056007;28;20482;-81
2022/06/27 05:29:04;;;;;;;0.70;0.70;;;;;;;;;;5071945;28;20471;-80
2022/06/27 05:31:32;;;;;;;0.70;0.60;;;;;;;;;;5055978;28;20447;-81
2022/06/27 05:34:01;;;;;;;0.97;0.97;;;;;;;;;;5052496;28;20475;-81
2022/06/27 05:36:27;;;;;;;0.70;0.70;;;;;;;;;;5065809;28;20479;-81
2022/06/27 05:38:55;;;;;;;0.80;0.73;;;;;;;;;;5037500;28;20450;-81
2022/06/27 05:41:22;;;;;;;0.70;0.70;;;;;;;;;;5052221;28;20502;-81
2022/06/27 05:43:55;;;;;;;0.80;0.80;;;;;;;;;;5053598;28;20444;-81
2022/06/27 05:46:23;;;;;;;17.40;3.60;;;;;;;;;;5052785;28;20466;-81
2022/06/27 05:49:13;;;;;;;1.80;1.70;;;;;;;;;;5052346;28;20520;-81
2022/06/27 05:51:52;;;;;;;1.77;0.83;;;;;;;;;;5054294;28;20627;-81
2022/06/27 05:54:21;;;;;;;1.70;1.60;;;;;;;;;;5034918;28;20451;-81
2022/06/27 05:56:48;;;;;;;0.67;0.60;;;;;;;;;;5036169;28;20564;-81
2022/06/27 05:59:17;;;;;;;0.70;0.70;;;;;;;;;;5035137;28;20451;-80
2022/06/27 06:01:45;;;;;;;0.87;0.87;;;;;;;;;;5052168;28;20474;-81
2022/06/27 06:04:13;;;;;;;0.90;0.90;;;;;;;;;;5034936;28;20437;-81
2022/06/27 06:06:43;;;;;;;1.33;1.23;;;;;;;;;;5053801;28;20999;-82
2022/06/27 06:09:11;;;;;;;0.70;0.60;;;;;;;;;;5051374;28;20451;-81
2022/06/27 06:11:39;;;;;;;1.50;1.40;;;;;;;;;;5050643;28;20436;-82
2022/06/27 06:14:08;;;;;;;4.40;1.43;;;;;;;;;;5051104;28;20550;-81
2022/06/27 06:16:37;;;;;;;1.00;0.90;;;;;;;;;;5067578;28;20473;-81
2022/06/27 06:19:04;;;;;;;0.73;0.70;;;;;;;;;;5051224;28;20455;-81
2022/06/27 06:21:32;;;;;;;1.30;1.23;;;;;;;;;;5035354;28;20503;-80
2022/06/27 06:23:59;;;;;;;1.20;1.10;;;;;;;;;;5035298;28;20478;-81
2022/06/27 06:26:27;;;;;;;0.90;0.90;;;;;;;;;;5035205;28;20422;-81
2022/06/27 06:28:54;;;;;;;0.70;0.70;;;;;;;;;;5051728;28;20452;-81
2022/06/27 06:31:22;;;;;;;1.47;1.37;;;;;;;;;;5035266;28;20439;-81
2022/06/27 06:34:00;;;;;;;0.80;0.80;;;;;;;;;;5036962;28;20438;-81
2022/06/27 06:36:27;;;;;;;0.70;0.70;;;;;;;;;;5043071;28;21038;-81
2022/06/27 06:38:54;;;;;;;0.70;0.70;;;;;;;;;;5039646;28;20543;-81
2022/06/27 06:41:21;;;;;;;0.80;0.80;;;;;;;;;;5047237;28;20818;-81
2022/06/27 06:43:48;;;;;;;1.03;0.90;;;;;;;;;;5068226;28;20448;-80
2022/06/27 06:46:39;;;;;;;0.73;0.73;;;;;;;;;;5071366;28;20971;-80
2022/06/27 06:49:11;;;;;;;0.70;0.70;;;;;;;;;;5058616;28;20429;-81
2022/06/27 06:51:42;;;;;;;1.53;1.43;;;;;;;;;;5058624;28;20458;-81
2022/06/27 06:54:12;;;;;;;0.80;0.80;;;;;;;;;;5075566;28;20465;-81
2022/06/27 06:56:39;;;;;;;1.93;1.30;;;;;;;;;;5072092;28;21034;-81
2022/06/27 06:59:07;;;;;;;0.80;0.80;;;;;;;;;;5051800;28;20966;-81
2022/06/27 07:01:35;;;;;;;0.70;0.70;;;;;;;;;;5072764;28;20936;-80
2022/06/27 07:04:03;;;;;;;0.70;0.60;;;;;;;;;;5052223;28;20535;-81
2022/06/27 07:06:32;;;;;;;0.80;0.80;;;;;;;;;;5059178;28;20819;-81
2022/06/27 07:08:59;;;;;;;0.80;0.80;;;;;;;;;;5058290;28;20442;-81
2022/06/27 07:11:31;;;;;;;1.30;1.20;;;;;;;;;;5071996;28;20452;-81
2022/06/27 07:13:59;;;;;;;0.70;0.70;;;;;;;;;;5038371;28;20482;-81
2022/06/27 07:16:26;;;;;;;0.80;0.80;;;;;;;;;;5055212;28;20440;-80
2022/06/27 07:18:57;;;;;;;0.90;0.80;;;;;;;;;;5054312;28;20551;-81
2022/06/27 07:21:26;;;;;;;0.80;0.80;;;;;;;;;;5053592;28;20468;-81
2022/06/27 07:23:54;;;;;;;1.10;1.00;;;;;;;;;;5054013;28;20443;-81
2022/06/27 07:26:22;;;;;;;1.83;1.10;;;;;;;;;;5061925;28;20797;-81
2022/06/27 07:28:51;;;;;;;0.90;0.90;;;;;;;;;;5059327;28;20479;-81
2022/06/27 07:31:18;;;;;;;0.73;0.73;;;;;;;;;;5038113;28;20967;-81
2022/06/27 07:33:46;;;;;;;1.73;1.63;;;;;;;;;;5056197;28;20383;-82
2022/06/27 07:36:17;;;;;;;3.53;1.33;;;;;;;;;;5057613;28;20571;-81
2022/06/27 07:38:46;;;;;;;0.80;0.80;;;;;;;;;;5059578;28;20471;-81
2022/06/27 07:41:15;;;;;;;0.70;0.70;;;;;;;;;;5068964;28;20945;-81
2022/06/27 07:43:44;;;;;;;1.00;0.80;;;;;;;;;;5054517;28;20440;-81
2022/06/27 07:46:11;;;;;;;0.90;0.80;;;;;;;;;;5054072;28;20448;-81
2022/06/27 07:48:37;;;;;;;1.33;1.23;;;;;;;;;;5054225;28;20446;-81
2022/06/27 07:51:05;;;;;;;1.00;0.97;;;;;;;;;;5038407;28;20518;-81
2022/06/27 07:53:32;;;;;;;1.77;1.33;;;;;;;;;;5054247;28;20455;-82
2022/06/27 07:56:03;;;;;;;1.00;1.00;;;;;;;;;;5054262;28;20448;-81
2022/06/27 07:58:33;;;;;;;8.70;2.50;;;;;;;;;;5053403;28;20429;-81
2022/06/27 08:01:02;;;;;;;0.73;0.70;;;;;;;;;;5053893;28;20469;-82
2022/06/27 08:03:40;;;;;;;1.13;1.03;;;;;;;;;;5053536;28;20514;-82
2022/06/27 08:06:10;;;;;;;1.70;1.60;;;;;;;;;;5037497;28;20486;-81
2022/06/27 08:08:39;;;;;;;1.33;1.27;;;;;;;;;;5037241;28;20472;-82
2022/06/27 08:11:06;;;;;;;0.80;0.80;;;;;;;;;;5056102;28;20407;-82
2022/06/27 08:13:36;;;;;;;1.53;1.43;;;;;;;;;;5060718;28;20406;-81
2022/06/27 08:16:05;;;;;;;0.97;0.87;;;;;;;;;;5072896;28;20939;-81
2022/06/27 08:18:33;;;;;;;0.90;0.90;;;;;;;;;;5073184;28;20967;-82
2022/06/27 08:21:01;;;;;;;0.73;0.70;;;;;;;;;;5073612;28;20465;-82
2022/06/27 08:23:31;;;;;;;3.20;2.00;;;;;;;;;;5042357;28;20409;-82
2022/06/27 08:25:59;;;;;;;0.90;0.80;;;;;;;;;;5051146;28;20414;-82
2022/06/27 08:28:28;;;;;;;1.63;1.30;;;;;;;;;;5053236;28;20463;-81
2022/06/27 08:31:00;;;;;;;0.70;0.70;;;;;;;;;;5051466;28;20411;-81
2022/06/27 08:33:29;;;;;;;0.97;0.90;;;;;;;;;;5052411;28;21010;-82
2022/06/27 08:35:56;;;;;;;1.10;1.03;;;;;;;;;;5036175;28;20790;-81
2022/06/27 08:38:24;;;;;;;0.97;0.97;;;;;;;;;;5073205;28;20443;-82
2022/06/27 08:40:52;;;;;;;1.27;1.17;;;;;;;;;;5045568;28;20543;-82
2022/06/27 08:43:19;;;;;;;1.00;0.90;;;;;;;;;;5048077;28;20443;-83
2022/06/27 08:45:47;;;;;;;0.70;0.70;;;;;;;;;;5074309;28;20434;-83
2022/06/27 08:48:16;;;;;;;0.87;0.87;;;;;;;;;;5073398;28;20486;-83
2022/06/27 08:50:45;;;;;;;1.60;1.47;;;;;;;;;;5064986;28;20436;-80
2022/06/27 08:53:12;;;;;;;1.27;1.17;;;;;;;;;;5055621;28;20479;-82
2022/06/27 08:55:42;;;;;;;2.40;2.30;;;;;;;;;;5055623;28;20439;-82
2022/06/27 08:58:10;;;;;;;0.70;0.67;;;;;;;;;;5060016;28;20447;-81
2022/06/27 09:00:40;;;;;;;0.80;0.80;;;;;;;;;;5071841;28;20438;-82
2022/06/27 09:03:08;;;;;;;0.73;0.73;;;;;;;;;;5057779;28;20450;-82
2022/06/27 09:05:37;;;;;;;0.83;0.83;;;;;;;;;;5073789;28;20428;-82
2022/06/27 09:08:05;;;;;;;0.70;0.70;;;;;;;;;;5048235;28;20470;-82
2022/06/27 09:10:33;;;;;;;1.30;1.20;;;;;;;;;;5052422;28;20477;-81
2022/06/27 09:13:05;;;;;;;1.37;1.27;;;;;;;;;;5036712;28;20448;-81
2022/06/27 09:15:53;;;;;;;0.80;0.80;;;;;;;;;;5055203;28;20902;-82
2022/06/27 09:18:20;;;;;;;1.40;1.30;;;;;;;;;;5055167;28;20492;-82
2022/06/27 09:20:52;;;;;;;0.80;0.80;;;;;;;;;;5055190;28;20543;-82
2022/06/27 09:23:26;;;;;;;0.80;0.80;;;;;;;;;;5069688;28;20428;-82
2022/06/27 09:25:56;;;;;;;0.97;0.87;;;;;;;;;;5072457;28;20505;-81
2022/06/27 09:28:35;;;;;;;0.80;0.70;;;;;;;;;;5061808;28;20434;-81
2022/06/27 09:31:02;;;;;;;0.80;0.80;;;;;;;;;;5071318;28;20555;-79
2022/06/27 09:33:31;;;;;;;0.80;0.70;;;;;;;;;;5052075;28;20440;-79
2022/06/27 09:36:07;;;;;;;2.03;1.43;;;;;;;;;;5054033;28;20488;-79
2022/06/27 09:38:38;;;;;;;1.40;1.30;;;;;;;;;;5054929;28;20493;-79
2022/06/27 09:41:05;;;;;;;1.20;1.10;;;;;;;;;;5035974;28;20547;-80
2022/06/27 09:43:34;;;;;;;1.27;1.17;;;;;;;;;;5054988;28;20630;-79
2022/06/27 09:46:01;;;;;;;0.90;0.90;;;;;;;;;;5055053;28;20791;-80
2022/06/27 09:48:28;;;;;;;0.80;0.80;;;;;;;;;;5071238;28;20540;-79
2022/06/27 09:50:55;;;;;;;1.60;1.50;;;;;;;;;;5050865;28;20459;-80
2022/06/27 09:53:27;;;;;;;4.90;2.30;;;;;;;;;;5052338;28;20519;-80
2022/06/27 09:55:54;;;;;;;1.57;0.90;;;;;;;;;;5053762;28;20812;-79
2022/06/27 09:58:22;;;;;;;0.70;0.60;;;;;;;;;;5053270;28;20405;-80
2022/06/27 10:00:49;;;;;;;0.87;0.87;;;;;;;;;;5052192;28;20415;-80
2022/06/27 10:03:16;;;;;;;2.40;2.20;;;;;;;;;;5070621;28;20505;-79
2022/06/27 10:05:45;;;;;;;1.03;0.93;;;;;;;;;;5072219;28;20431;-79
2022/06/27 10:08:14;;;;;;;0.80;0.80;;;;;;;;;;5072559;28;20462;-80
2022/06/27 10:11:00;;;;;;;0.90;0.90;;;;;;;;;;5078069;28;20888;-79
2022/06/27 10:13:31;;;;;;;0.80;0.70;;;;;;;;;;5049995;28;20439;-80
2022/06/27 10:15:58;;;;;;;2.20;2.10;;;;;;;;;;5056415;28;20466;-80
2022/06/27 10:18:25;;;;;;;1.93;1.83;;;;;;;;;;5056683;28;20451;-80
2022/06/27 10:20:52;;;;;;;4.60;1.10;;;;;;;;;;5056966;28;20447;-79
2022/06/27 10:23:31;;;;;;;1.83;1.73;;;;;;;;;;5054209;28;20443;-80
2022/06/27 10:25:58;;;;;;;1.10;0.90;;;;;;;;;;5055047;28;20430;-79
2022/06/27 10:28:25;;;;;;;0.80;0.77;;;;;;;;;;5071656;28;20496;-80
2022/06/27 10:30:54;;;;;;;1.93;1.43;;;;;;;;;;5040799;28;20423;-79
2022/06/27 10:33:34;;;;;;;0.90;0.90;;;;;;;;;;5058643;28;20439;-79
2022/06/27 10:38:30;;;;;;;1.23;1.03;;;;;;;;;;5077147;28;20490;-79
2022/06/27 10:40:57;;;;;;;0.80;0.80;;;;;;;;;;5076857;28;20435;-79
2022/06/27 10:43:40;;;;;;;1.27;1.07;;;;;;;;;;5057253;28;20440;-79
2022/06/27 10:46:26;;;;;;;1.23;1.10;;;;;;;;;;5041546;28;20440;-79
2022/06/27 10:48:55;;;;;;;0.80;0.70;;;;;;;;;;5040441;28;20886;-80
2022/06/27 10:51:22;;;;;;;0.80;0.80;;;;;;;;;;5058961;28;20452;-80
2022/06/27 10:53:50;;;;;;;0.80;0.60;;;;;;;;;;5065780;28;20452;-79
2022/06/27 10:56:30;;;;;;;1.07;0.87;;;;;;;;;;5045972;28;20446;-79
2022/06/27 10:58:57;;;;;;;1.20;1.10;;;;;;;;;;5056904;28;20450;-80
2022/06/27 11:01:24;;;;;;;2.30;2.20;;;;;;;;;;5076737;28;20525;-80
2022/06/27 11:03:51;;;;;;;1.87;1.27;;;;;;;;;;5063856;28;20516;-79
2022/06/27 11:06:20;;;;;;;1.27;0.90;;;;;;;;;;5069704;28;20462;-79
2022/06/27 11:08:48;;;;;;;1.53;1.43;;;;;;;;;;5074717;28;20469;-80
2022/06/27 11:11:21;;;;;;;0.80;0.80;;;;;;;;;;5074863;28;20445;-79
2022/06/27 11:13:49;;;;;;;0.97;0.97;;;;;;;;;;5060139;28;20502;-79
2022/06/27 11:16:17;;;;;;;1.53;1.43;;;;;;;;;;5055660;28;20956;-79
2022/06/27 11:18:45;;;;;;;0.80;0.80;;;;;;;;;;5053400;28;20420;-78
2022/06/27 11:21:13;;;;;;;1.20;1.10;;;;;;;;;;5057597;28;20472;-79
2022/06/27 11:23:48;;;;;;;1.27;1.17;;;;;;;;;;5054597;28;20455;-79
2022/06/27 11:26:15;;;;;;;1.33;1.23;;;;;;;;;;5056321;28;20530;-80
2022/06/27 11:34:25;;;;;;;1.00;0.90;;;;;;;;;;5053841;28;20411;-79
2022/06/27 11:36:52;;;;;;;0.90;0.80;;;;;;;;;;5062221;28;20440;-79
2022/06/27 11:39:24;;;;;;;0.70;0.70;;;;;;;;;;5058901;28;20846;-79
2022/06/27 11:41:56;;;;;;;1.37;1.27;;;;;;;;;;5053609;28;20467;-79
2022/06/27 11:44:23;;;;;;;0.90;0.90;;;;;;;;;;5037312;28;20481;-79
2022/06/27 11:46:51;;;;;;;1.20;1.10;;;;;;;;;;5037625;28;20411;-79
2022/06/27 11:49:26;;;;;;;2.90;2.70;;;;;;;;;;5056721;28;20503;-79
2022/06/27 11:51:57;;;;;;;0.80;0.80;;;;;;;;;;5053745;28;20438;-79
2022/06/27 11:54:25;;;;;;;1.10;1.00;;;;;;;;;;5036649;28;20952;-79
2022/06/27 11:56:55;;;;;;;0.97;0.90;;;;;;;;;;5054218;28;20435;-79
2022/06/27 11:59:21;;;;;;;1.03;0.90;;;;;;;;;;5037115;28;20421;-80
2022/06/27 12:01:52;;;;;;;1.20;1.10;;;;;;;;;;5055160;28;20472;-79
2022/06/27 12:04:19;;;;;;;1.27;1.17;;;;;;;;;;5037223;28;20518;-79
2022/06/27 12:06:52;;;;;;;1.07;1.00;;;;;;;;;;5044804;28;20440;-79
2022/06/27 12:09:20;;;;;;;0.70;0.60;;;;;;;;;;5073146;28;20449;-79
2022/06/27 12:11:50;;;;;;;1.10;1.00;;;;;;;;;;5075640;28;20440;-78
2022/06/27 12:14:17;;;;;;;1.30;1.20;;;;;;;;;;5039464;28;20514;-77
2022/06/27 12:16:45;;;;;;;1.27;1.17;;;;;;;;;;5053605;28;20429;-78
2022/06/27 12:19:12;;;;;;;2.07;1.97;;;;;;;;;;5056653;28;20398;-76
2022/06/27 12:21:38;;;;;;;3.20;2.93;;;;;;;;;;5069809;28;20456;-76
2022/06/27 12:24:06;;;;;;;1.27;1.17;;;;;;;;;;5061993;28;20530;-76
2022/06/27 12:26:33;;;;;;;1.17;1.03;;;;;;;;;;5053477;28;20448;-76
2022/06/27 12:29:02;;;;;;;1.30;1.20;;;;;;;;;;5035069;28;20438;-76
2022/06/27 12:31:31;;;;;;;1.10;1.00;;;;;;;;;;5055992;28;20448;-77
2022/06/27 12:33:58;;;;;;;4.70;1.93;;;;;;;;;;5051388;28;20498;-77
2022/06/27 12:36:24;;;;;;;1.63;1.37;;;;;;;;;;5060205;28;20469;-77
2022/06/27 12:38:51;;;;;;;1.83;1.73;;;;;;;;;;5072466;28;20427;-76
2022/06/27 12:41:21;;;;;;;1.67;1.50;;;;;;;;;;5073265;28;20467;-77
2022/06/27 12:43:47;;;;;;;1.33;1.20;;;;;;;;;;5058661;28;20426;-76
2022/06/27 12:46:17;;;;;;;0.70;0.70;;;;;;;;;;5051254;28;20458;-77
2022/06/27 12:48:44;;;;;;;1.57;1.00;;;;;;;;;;5061603;28;20830;-77
2022/06/27 12:51:11;;;;;;;2.63;2.43;;;;;;;;;;5055300;28;20455;-77
2022/06/27 12:53:38;;;;;;;1.43;1.33;;;;;;;;;;5060320;28;20469;-76
2022/06/27 12:56:05;;;;;;;0.80;0.70;;;;;;;;;;5056428;28;20459;-78
2022/06/27 12:58:33;;;;;;;0.80;0.73;;;;;;;;;;5056611;28;20943;-76
2022/06/27 13:00:59;;;;;;;1.93;1.20;;;;;;;;;;5072752;28;20538;-76
2022/06/27 13:03:28;;;;;;;0.70;0.60;;;;;;;;;;5036717;28;20471;-77
2022/06/27 13:05:55;;;;;;;1.30;1.10;;;;;;;;;;5065202;28;20543;-76
2022/06/27 13:08:22;;;;;;;0.70;0.50;;;;;;;;;;5036304;28;20452;-76
2022/06/27 13:10:49;;;;;;;0.90;0.73;;;;;;;;;;5051904;28;20440;-76
2022/06/27 13:13:15;;;;;;;0.70;0.70;;;;;;;;;;5054669;28;20436;-76
2022/06/27 13:15:42;;;;;;;0.70;0.60;;;;;;;;;;5052842;28;20444;-76
2022/06/27 13:18:09;;;;;;;0.73;0.60;;;;;;;;;;5063341;28;20447;-77
2022/06/27 13:20:37;;;;;;;1.00;0.80;;;;;;;;;;5054095;28;20498;-76
2022/06/27 13:23:14;;;;;;;1.73;1.10;;;;;;;;;;5073164;28;20461;-76
2022/06/27 13:25:41;;;;;;;1.17;1.07;;;;;;;;;;5067133;28;20460;-76
2022/06/27 13:28:08;;;;;;;0.80;0.70;;;;;;;;;;5052582;28;20455;-76
2022/06/27 13:30:35;;;;;;;0.70;0.60;;;;;;;;;;5052217;28;20502;-77
2022/06/27 13:33:02;;;;;;;0.80;0.70;;;;;;;;;;5063352;28;20965;-76
2022/06/27 13:35:28;;;;;;;1.20;1.10;;;;;;;;;;5073750;28;20980;-76
2022/06/27 13:37:57;;;;;;;0.70;0.67;;;;;;;;;;5066698;28;20454;-76
2022/06/27 13:40:24;;;;;;;0.83;0.83;;;;;;;;;;5071624;28;20934;-77
2022/06/27 13:42:50;;;;;;;0.80;0.70;;;;;;;;;;5059957;28;20462;-75
2022/06/27 13:45:17;;;;;;;0.70;0.60;;;;;;;;;;5063546;28;20804;-76
2022/06/27 13:47:44;;;;;;;0.80;0.70;;;;;;;;;;5062887;28;20438;-76
2022/06/27 13:50:12;;;;;;;0.93;0.83;;;;;;;;;;5059961;28;20451;-76
2022/06/27 13:52:42;;;;;;;1.00;0.83;;;;;;;;;;5062860;28;20452;-76
2022/06/27 13:55:11;;;;;;;1.00;0.90;;;;;;;;;;5065671;28;20399;-76
2022/06/27 13:57:38;;;;;;;0.70;0.63;;;;;;;;;;5054337;28;20834;-76
2022/06/27 14:00:24;;;;;;;1.07;0.97;;;;;;;;;;5046574;28;20424;-76
2022/06/27 14:02:51;;;;;;;0.80;0.80;;;;;;;;;;5041990;28;20476;-76
2022/06/27 14:05:21;;;;;;;0.70;0.70;;;;;;;;;;5042607;28;20426;-76
2022/06/27 14:07:48;;;;;;;0.80;0.70;;;;;;;;;;5063372;28;20468;-76
2022/06/27 14:10:16;;;;;;;0.70;0.60;;;;;;;;;;5035517;28;21032;-75
2022/06/27 14:12:44;;;;;;;0.70;0.60;;;;;;;;;;5052901;28;20443;-75
2022/06/27 14:15:19;;;;;;;0.70;0.60;;;;;;;;;;5051889;28;20443;-76
2022/06/27 14:17:49;;;;;;;0.70;0.60;;;;;;;;;;5052415;28;20390;-76
2022/06/27 14:20:17;;;;;;;0.70;0.60;;;;;;;;;;5051646;28;20570;-76
2022/06/27 14:22:43;;;;;;;0.70;0.60;;;;;;;;;;5052783;28;20491;-75
2022/06/27 14:25:10;;;;;;;0.70;0.60;;;;;;;;;;5084603;28;20444;-76
2022/06/27 14:27:38;;;;;;;0.70;0.70;;;;;;;;;;5059748;28;20444;-76
2022/06/27 14:30:06;;;;;;;0.90;0.80;;;;;;;;;;5055716;28;20434;-77
2022/06/27 14:32:35;;;;;;;0.80;0.80;;;;;;;;;;5057091;28;20401;-75
2022/06/27 14:35:22;;;;;;;0.70;0.60;;;;;;;;;;5072753;28;20427;-75
2022/06/27 14:37:50;;;;;;;0.70;0.60;;;;;;;;;;5070466;28;20799;-77
2022/06/27 14:40:17;;;;;;;0.70;0.60;;;;;;;;;;5072789;28;20807;-75
2022/06/27 14:42:45;;;;;;;0.80;0.70;;;;;;;;;;5050725;28;20463;-75
2022/06/27 14:45:11;;;;;;;0.80;0.70;;;;;;;;;;5049290;28;20502;-75
2022/06/27 14:47:38;;;;;;;0.80;0.70;;;;;;;;;;5051185;28;20924;-79
2022/06/27 14:50:07;;;;;;;0.70;0.70;;;;;;;;;;5052308;28;20521;-81
2022/06/27 14:52:33;;;;;;;0.70;0.60;;;;;;;;;;5052895;28;20448;-79
2022/06/27 14:55:00;;;;;;;0.70;0.70;;;;;;;;;;5050984;28;20454;-77
2022/06/27 14:57:27;;;;;;;0.80;0.77;;;;;;;;;;5054783;28;20935;-76
2022/06/27 14:59:55;;;;;;;0.80;0.70;;;;;;;;;;5054632;28;20465;-78
2022/06/27 15:02:22;;;;;;;0.70;0.60;;;;;;;;;;5040936;28;20947;-76
2022/06/27 15:04:50;;;;;;;0.70;0.70;;;;;;;;;;5066280;28;20488;-75
2022/06/27 15:07:17;;;;;;;0.70;0.70;;;;;;;;;;5051858;28;20459;-75
2022/06/27 15:09:43;;;;;;;0.80;0.73;;;;;;;;;;5074785;28;20481;-75